Godreau, Canada
Current Conditions -  °F | °C
As of 7:00 PM on Thursday 27 Nov 2014 (Local Time) from CYXZ Reporting Station
Few Clouds Few Clouds  
Wind Chill:   Ceiling: Unl
Heat Index:   Visibility: 15mi
Dew Point: -6°   Wind: 3mph
Humidity: 78%   Direction: 10°N
Pressure: 30.27"   Gusts: NA
Location:  48.25°N, 84.53°W
Report Text: CYXZ 280000Z 01003KT 330V050 15SM FEW025 M18/M21 A3027 RMK SC1 LAST OBS/NEXT 281100UTC SLP280
Loading
Personal Weather Stations






























Interactive Weather Map New forecast layout! Learn more

10-Day Weather Forecast

Advertisements
Track Severe Weather on mobile